createdAt,value
2023-04-25T00:00:18.436Z,5.20
2023-04-25T00:02:45.165Z,4.28
2023-04-25T00:05:12.575Z,4.63
2023-04-25T00:07:39.592Z,4.65
2023-04-25T00:10:07.285Z,4.20
2023-04-25T00:12:35.189Z,4.72
2023-04-25T00:15:01.912Z,4.10
2023-04-25T00:17:29.082Z,3.88
2023-04-25T00:19:56.031Z,3.55
2023-04-25T00:22:22.661Z,4.78
2023-04-25T00:24:49.295Z,3.92
2023-04-25T00:27:16.350Z,4.50
2023-04-25T00:29:43.023Z,5.15
2023-04-25T00:32:09.602Z,5.28
2023-04-25T00:34:36.490Z,4.00
2023-04-25T00:37:03.286Z,4.05
2023-04-25T00:39:30.101Z,4.22
2023-04-25T00:41:56.999Z,5.38
2023-04-25T00:44:25.093Z,4.40
2023-04-25T00:46:53.021Z,4.00
2023-04-25T00:49:19.873Z,4.70
2023-04-25T00:51:46.475Z,5.50
2023-04-25T00:54:16.750Z,4.40
2023-04-25T00:56:43.812Z,4.78
2023-04-25T00:59:11.113Z,4.40
2023-04-25T01:01:39.394Z,4.10
2023-04-25T01:04:06.571Z,4.25
2023-04-25T01:06:33.794Z,3.97
2023-04-25T01:09:00.673Z,3.80
2023-04-25T01:11:27.670Z,4.20
2023-04-25T01:13:54.234Z,3.72
2023-04-25T01:16:21.394Z,3.70
2023-04-25T01:18:49.123Z,3.70
2023-04-25T01:21:15.889Z,3.10
2023-04-25T01:23:43.393Z,3.20
2023-04-25T01:26:12.215Z,3.35
2023-04-25T01:28:43.129Z,3.60
2023-04-25T01:31:10.106Z,3.70
2023-04-25T01:33:37.108Z,3.05
2023-04-25T01:36:04.079Z,3.13
2023-04-25T01:38:31.250Z,3.65
2023-04-25T01:40:58.195Z,3.30
2023-04-25T01:43:25.404Z,3.40
2023-04-25T01:45:52.598Z,3.00
2023-04-25T01:48:19.692Z,3.72
2023-04-25T01:50:46.896Z,3.13
2023-04-25T01:53:14.725Z,3.65
2023-04-25T01:55:41.733Z,3.05
2023-04-25T01:58:10.738Z,2.88
2023-04-25T02:00:41.886Z,3.28
2023-04-25T02:03:09.816Z,2.83
2023-04-25T02:05:38.578Z,3.58
2023-04-25T02:08:09.511Z,3.20
2023-04-25T02:10:37.109Z,3.42
2023-04-25T02:13:05.465Z,2.97
2023-04-25T02:15:32.466Z,3.30
2023-04-25T02:18:01.112Z,3.17
2023-04-25T02:20:29.702Z,3.25
2023-04-25T02:22:56.362Z,3.38
2023-04-25T02:25:23.445Z,3.47
2023-04-25T02:27:50.226Z,3.75
2023-04-25T02:30:16.880Z,3.25
2023-04-25T02:32:44.000Z,3.63
2023-04-25T02:35:10.777Z,3.08
2023-04-25T02:37:38.875Z,3.55
2023-04-25T02:40:06.333Z,3.35
2023-04-25T02:42:33.300Z,3.20
2023-04-25T02:44:59.953Z,4.20
2023-04-25T02:47:26.904Z,3.13
2023-04-25T02:49:53.712Z,3.95
2023-04-25T02:52:20.378Z,3.67
2023-04-25T02:54:47.224Z,2.97
2023-04-25T02:57:13.791Z,3.10
2023-04-25T02:59:40.372Z,3.03
2023-04-25T03:02:07.294Z,3.30
2023-04-25T03:04:34.574Z,3.50
2023-04-25T03:07:01.958Z,3.25
2023-04-25T03:09:28.694Z,3.65
2023-04-25T03:11:55.245Z,2.83
2023-04-25T03:14:21.837Z,3.33
2023-04-25T03:16:48.632Z,3.20
2023-04-25T03:19:17.080Z,3.45
2023-04-25T03:21:44.442Z,3.00
2023-04-25T03:24:12.170Z,3.13
2023-04-25T03:26:38.758Z,3.25
2023-04-25T03:29:05.437Z,3.30
2023-04-25T03:31:32.702Z,2.95
2023-04-25T03:33:59.334Z,3.13
2023-04-25T03:36:25.987Z,2.63
2023-04-25T03:38:52.675Z,3.20
2023-04-25T03:41:19.260Z,3.70
2023-04-25T03:43:45.992Z,2.78
2023-04-25T03:46:12.842Z,3.08
2023-04-25T03:48:39.475Z,3.00
2023-04-25T03:51:06.272Z,3.22
2023-04-25T03:53:33.073Z,3.05
2023-04-25T03:56:00.212Z,3.35
2023-04-25T03:58:26.832Z,2.78
2023-04-25T04:00:53.449Z,2.47
2023-04-25T04:03:20.204Z,2.35
2023-04-25T04:05:47.601Z,3.15
2023-04-25T04:08:14.639Z,3.10
2023-04-25T04:10:41.417Z,3.45
2023-04-25T04:13:08.055Z,2.67
2023-04-25T04:15:35.365Z,3.13
2023-04-25T04:18:03.878Z,2.83
2023-04-25T04:20:33.775Z,3.13
2023-04-25T04:23:00.508Z,2.47
2023-04-25T04:25:27.330Z,3.65
2023-04-25T04:27:55.660Z,2.90
2023-04-25T04:30:25.730Z,2.83
2023-04-25T04:32:53.106Z,3.35
2023-04-25T04:35:19.844Z,2.53
2023-04-25T04:37:47.701Z,2.47
2023-04-25T04:40:16.725Z,3.00
2023-04-25T04:42:46.221Z,3.10
2023-04-25T04:45:13.351Z,2.67
2023-04-25T04:47:40.632Z,3.00
2023-04-25T04:50:10.524Z,3.20
2023-04-25T04:52:38.600Z,2.40
2023-04-25T04:55:06.834Z,2.80
2023-04-25T04:57:34.031Z,2.58
2023-04-25T05:00:00.957Z,2.97
2023-04-25T05:02:28.004Z,3.03
2023-04-25T05:04:54.832Z,2.53
2023-04-25T05:07:21.699Z,2.60
2023-04-25T05:09:48.350Z,2.88
2023-04-25T05:12:15.033Z,2.40
2023-04-25T05:14:41.726Z,2.70
2023-04-25T05:17:09.501Z,3.20
2023-04-25T05:19:36.408Z,2.53
2023-04-25T05:22:03.666Z,2.75
2023-04-25T05:24:31.539Z,2.22
2023-04-25T05:26:58.516Z,2.60
2023-04-25T05:29:25.338Z,2.60
2023-04-25T05:31:51.997Z,2.50
2023-04-25T05:34:18.724Z,2.65
2023-04-25T05:36:45.586Z,2.50
2023-04-25T05:39:12.537Z,2.60
2023-04-25T05:41:39.298Z,2.65
2023-04-25T05:44:06.602Z,3.25
2023-04-25T05:46:33.361Z,3.53
2023-04-25T05:49:00.024Z,3.00
2023-04-25T05:51:27.168Z,3.40
2023-04-25T05:53:54.113Z,2.38
2023-04-25T05:56:20.956Z,2.92
2023-04-25T05:58:48.314Z,3.00
2023-04-25T06:01:15.277Z,2.45
2023-04-25T06:03:44.117Z,2.78
2023-04-25T06:06:11.048Z,2.22
2023-04-25T06:08:38.790Z,2.55
2023-04-25T06:11:05.852Z,2.47
2023-04-25T06:13:32.799Z,2.83
2023-04-25T06:15:59.462Z,2.78
2023-04-25T06:18:26.170Z,2.95
2023-04-25T06:20:52.811Z,2.60
2023-04-25T06:23:19.443Z,2.70
2023-04-25T06:25:46.063Z,2.72
2023-04-25T06:28:13.120Z,2.53
2023-04-25T06:30:39.769Z,2.88
2023-04-25T06:33:06.401Z,2.55
2023-04-25T06:35:33.332Z,2.60
2023-04-25T06:37:59.926Z,2.55
2023-04-25T06:40:26.668Z,3.13
2023-04-25T06:42:53.422Z,2.80
2023-04-25T06:45:20.013Z,2.72
2023-04-25T06:47:46.702Z,2.47
2023-04-25T06:50:13.518Z,2.42
2023-04-25T06:52:40.166Z,2.65
2023-04-25T06:55:07.385Z,2.47
2023-04-25T06:57:34.318Z,2.30
2023-04-25T07:00:02.292Z,2.38
2023-04-25T07:02:29.650Z,2.40
2023-04-25T07:05:00.906Z,2.13
2023-04-25T07:07:28.117Z,2.30
2023-04-25T07:09:54.764Z,2.50
2023-04-25T07:12:21.551Z,2.40
2023-04-25T07:14:48.218Z,2.10
2023-04-25T07:17:14.881Z,2.17
2023-04-25T07:19:41.702Z,2.40
2023-04-25T07:22:08.356Z,2.28
2023-04-25T07:24:35.013Z,2.08
2023-04-25T07:27:02.363Z,2.22
2023-04-25T07:29:29.029Z,2.10
2023-04-25T07:31:55.846Z,2.17
2023-04-25T07:34:22.630Z,2.53
2023-04-25T07:36:49.455Z,1.90
2023-04-25T07:39:16.164Z,1.73
2023-04-25T07:41:42.953Z,2.00
2023-04-25T07:44:09.560Z,1.90
2023-04-25T07:46:36.216Z,2.30
2023-04-25T07:49:03.622Z,2.22
2023-04-25T07:51:30.295Z,2.17
2023-04-25T07:53:57.139Z,2.10
2023-04-25T07:56:24.137Z,2.42
2023-04-25T07:58:50.968Z,2.30
2023-04-25T08:01:17.825Z,2.55
2023-04-25T08:03:45.097Z,2.30
2023-04-25T08:06:12.523Z,2.25
2023-04-25T08:08:39.310Z,2.20
2023-04-25T08:11:06.118Z,2.05
2023-04-25T08:13:32.702Z,2.30
2023-04-25T08:15:59.362Z,2.10
2023-04-25T08:18:26.125Z,2.33
2023-04-25T08:20:52.793Z,2.45
2023-04-25T08:23:19.398Z,2.28
2023-04-25T08:25:46.111Z,1.90
2023-04-25T08:28:12.736Z,2.00
2023-04-25T08:30:39.369Z,2.00
2023-04-25T08:33:06.306Z,2.00
2023-04-25T08:35:34.184Z,1.30
2023-04-25T08:38:01.815Z,1.65
2023-04-25T08:40:31.214Z,1.55
2023-04-25T08:42:58.911Z,1.50
2023-04-25T08:45:28.937Z,1.40
2023-04-25T08:47:58.388Z,1.50
2023-04-25T08:50:27.252Z,1.80
2023-04-25T08:52:55.482Z,1.45
2023-04-25T08:55:23.650Z,2.03
2023-04-25T08:57:51.515Z,1.42
2023-04-25T09:00:19.416Z,1.45
2023-04-25T09:02:47.879Z,1.80
2023-04-25T09:05:15.621Z,2.08
2023-04-25T09:07:42.251Z,1.75
2023-04-25T09:10:09.673Z,1.63
2023-04-25T09:12:37.681Z,1.83
2023-04-25T09:15:08.445Z,1.70
2023-04-25T09:17:35.290Z,1.85
2023-04-25T09:20:14.330Z,1.65
2023-04-25T09:22:41.419Z,1.73
2023-04-25T09:25:13.534Z,1.60
2023-04-25T09:27:54.160Z,1.73
2023-04-25T09:33:11.934Z,1.75
2023-04-25T09:35:43.988Z,1.60
2023-04-25T09:38:17.067Z,2.10
2023-04-25T09:40:46.262Z,2.50
2023-04-25T09:43:27.168Z,2.00
2023-04-25T09:45:59.000Z,2.03
2023-04-25T09:48:27.078Z,2.30
2023-04-25T09:51:10.577Z,2.53
2023-04-25T09:53:40.224Z,2.30
2023-04-25T09:56:08.818Z,2.03
2023-04-25T09:58:37.830Z,2.00
2023-04-25T10:01:07.609Z,2.35
2023-04-25T10:03:36.418Z,2.05
2023-04-25T10:06:09.493Z,2.25
2023-04-25T10:08:37.942Z,2.20
2023-04-25T10:11:06.951Z,2.70
2023-04-25T10:13:34.971Z,2.38
2023-04-25T10:16:03.741Z,2.22
2023-04-25T10:18:31.585Z,2.28
2023-04-25T10:21:01.053Z,1.80
2023-04-25T10:23:30.310Z,2.10
2023-04-25T10:25:57.755Z,2.13
2023-04-25T10:28:24.998Z,2.20
2023-04-25T10:31:02.110Z,2.13
2023-04-25T10:33:36.310Z,2.22
2023-04-25T10:36:13.608Z,2.50
2023-04-25T10:38:41.412Z,1.77
2023-04-25T10:41:10.140Z,2.38
2023-04-25T10:43:39.598Z,2.10
2023-04-25T10:46:26.903Z,2.00
2023-04-25T10:48:55.955Z,2.10
2023-04-25T10:51:29.549Z,2.30
2023-04-25T10:54:04.439Z,2.33
2023-04-25T10:56:40.812Z,2.65
2023-04-25T10:59:15.398Z,2.50
2023-04-25T11:01:42.221Z,2.17
2023-04-25T11:04:39.959Z,2.10
2023-04-25T11:07:38.630Z,2.75
2023-04-25T11:10:06.210Z,2.25
2023-04-25T11:12:33.466Z,2.35
2023-04-25T11:15:08.337Z,2.17
2023-04-25T11:17:35.699Z,2.38
2023-04-25T11:20:02.500Z,2.20
2023-04-25T11:22:29.732Z,2.67
2023-04-25T11:24:56.434Z,2.53
2023-04-25T11:27:23.232Z,2.13
2023-04-25T11:29:49.856Z,2.42
2023-04-25T11:32:19.787Z,2.55
2023-04-25T11:34:47.941Z,2.10
2023-04-25T11:37:15.599Z,2.83
2023-04-25T11:39:47.291Z,2.40
2023-04-25T11:42:14.365Z,2.13
2023-04-25T11:44:41.965Z,1.98
2023-04-25T11:47:08.696Z,1.92
2023-04-25T11:49:36.736Z,2.10
2023-04-25T11:52:03.869Z,2.05
2023-04-25T11:54:30.641Z,2.00
2023-04-25T11:56:57.740Z,2.35
2023-04-25T11:59:26.359Z,2.00
2023-04-25T12:01:53.084Z,1.77
2023-04-25T12:04:24.736Z,1.98
2023-04-25T12:06:55.212Z,2.20
2023-04-25T12:09:33.524Z,1.98
2023-04-25T12:12:04.300Z,2.13
2023-04-25T12:14:33.486Z,2.22
2023-04-25T12:17:01.798Z,1.90
2023-04-25T12:19:34.659Z,2.30
2023-04-25T12:22:02.207Z,1.90
2023-04-25T12:24:29.182Z,1.90
2023-04-25T12:27:06.108Z,2.05
2023-04-25T12:29:48.616Z,2.20
2023-04-25T12:32:17.810Z,2.10
2023-04-25T12:34:44.708Z,2.30
2023-04-25T12:37:11.713Z,2.03
2023-04-25T12:39:38.597Z,2.47
2023-04-25T12:42:07.564Z,2.30
2023-04-25T12:44:36.085Z,2.50
2023-04-25T12:47:04.281Z,2.33
2023-04-25T12:49:31.525Z,2.10
2023-04-25T12:51:58.294Z,2.50
2023-04-25T12:54:25.762Z,2.38
2023-04-25T12:56:52.473Z,2.38
2023-04-25T12:59:19.560Z,2.03
2023-04-25T13:01:46.663Z,2.30
2023-04-25T13:04:13.645Z,2.42
2023-04-25T13:06:40.582Z,2.28
2023-04-25T13:09:08.033Z,2.30
2023-04-25T13:11:34.650Z,2.30
2023-04-25T13:14:02.108Z,2.70
2023-04-25T13:16:28.993Z,2.00
2023-04-25T13:18:57.401Z,2.13
2023-04-25T13:21:24.291Z,1.98
2023-04-25T13:23:52.169Z,2.38
2023-04-25T13:26:19.065Z,1.75
2023-04-25T13:28:45.872Z,2.53
2023-04-25T13:31:13.030Z,1.90
2023-04-25T13:33:39.658Z,1.90
2023-04-25T13:36:06.698Z,2.08
2023-04-25T13:38:33.595Z,2.10
2023-04-25T13:41:00.629Z,2.63
2023-04-25T13:43:27.277Z,2.13
2023-04-25T13:45:54.083Z,2.50
2023-04-25T13:48:21.189Z,2.42
2023-04-25T13:50:48.054Z,2.70
2023-04-25T13:53:14.887Z,2.25
2023-04-25T13:55:41.518Z,2.15
2023-04-25T13:58:09.075Z,2.33
2023-04-25T14:00:40.694Z,2.65
2023-04-25T14:03:08.844Z,1.83
2023-04-25T14:05:41.199Z,1.80
2023-04-25T14:08:09.621Z,1.95
2023-04-25T14:10:37.042Z,2.10
2023-04-25T14:13:04.674Z,1.80
2023-04-25T14:15:33.214Z,4.03
2023-04-25T14:18:01.355Z,1.95
2023-04-25T14:20:28.569Z,2.30
2023-04-25T14:22:57.081Z,2.88
2023-04-25T14:25:24.398Z,2.13
2023-04-25T14:27:51.321Z,2.60
2023-04-25T14:30:19.513Z,2.65
2023-04-25T14:32:46.786Z,2.25
2023-04-25T14:35:13.863Z,1.88
2023-04-25T14:37:41.137Z,2.13
2023-04-25T14:40:13.074Z,1.95
2023-04-25T14:42:40.811Z,2.20
2023-04-25T14:45:09.637Z,2.55
2023-04-25T14:47:39.885Z,2.20
2023-04-25T14:50:07.904Z,2.47
2023-04-25T14:52:34.671Z,2.40
2023-04-25T14:55:05.877Z,2.55
2023-04-25T14:57:33.847Z,2.30
2023-04-25T15:00:01.237Z,2.72
2023-04-25T15:02:29.484Z,2.60
2023-04-25T15:04:59.026Z,2.20
2023-04-25T15:07:25.788Z,1.88
2023-04-25T15:09:54.392Z,2.15
2023-04-25T15:12:21.680Z,2.13
2023-04-25T15:14:48.360Z,2.20
2023-04-25T15:17:15.867Z,1.77
2023-04-25T15:19:42.535Z,2.47
2023-04-25T15:22:09.413Z,2.00
2023-04-25T15:24:36.378Z,1.88
2023-04-25T15:27:03.928Z,2.40
2023-04-25T15:29:31.030Z,2.58
2023-04-25T15:31:58.223Z,2.30
2023-04-25T15:34:26.834Z,4.10
2023-04-25T15:36:53.858Z,6.20
2023-04-25T15:39:20.867Z,12.93
2023-04-25T15:41:47.885Z,4.55
2023-04-25T15:44:15.307Z,3.03
2023-04-25T15:46:42.399Z,2.50
2023-04-25T15:49:09.738Z,2.67
2023-04-25T15:51:37.311Z,2.50
2023-04-25T15:54:04.167Z,2.08
2023-04-25T15:56:30.806Z,1.83
2023-04-25T15:58:57.546Z,2.53
2023-04-25T16:01:26.179Z,2.20
2023-04-25T16:03:53.505Z,2.40
2023-04-25T16:06:20.870Z,2.15
2023-04-25T16:08:47.521Z,2.13
2023-04-25T16:11:14.879Z,2.13
2023-04-25T16:13:41.755Z,2.10
2023-04-25T16:16:09.013Z,2.35
2023-04-25T16:18:35.890Z,1.88
2023-04-25T16:21:03.266Z,1.77
2023-04-25T16:23:30.045Z,2.05
2023-04-25T16:25:56.891Z,1.92
2023-04-25T16:28:23.833Z,2.20
2023-04-25T16:30:50.514Z,2.03
2023-04-25T16:33:19.787Z,2.33
2023-04-25T16:35:46.576Z,2.08
2023-04-25T16:38:13.627Z,1.92
2023-04-25T16:40:40.722Z,2.42
2023-04-25T16:43:07.843Z,1.92
2023-04-25T16:45:34.485Z,1.80
2023-04-25T16:48:01.151Z,2.10
2023-04-25T16:50:28.068Z,1.70
2023-04-25T16:52:54.747Z,2.10
2023-04-25T16:55:21.667Z,1.95
2023-04-25T16:57:48.470Z,1.85
2023-04-25T17:00:15.835Z,2.35
2023-04-25T17:02:42.527Z,2.38
2023-04-25T17:05:10.616Z,1.80
2023-04-25T17:07:37.768Z,1.90
2023-04-25T17:10:04.844Z,2.22
2023-04-25T17:12:32.101Z,2.13
2023-04-25T17:15:00.345Z,2.20
2023-04-25T17:17:27.791Z,2.38
2023-04-25T17:19:54.651Z,2.15
2023-04-25T17:22:22.381Z,2.15
2023-04-25T17:24:49.248Z,2.13
2023-04-25T17:27:16.206Z,2.28
2023-04-25T17:29:43.012Z,1.90
2023-04-25T17:32:10.379Z,1.77
2023-04-25T17:34:40.182Z,2.65
2023-04-25T17:37:08.093Z,2.23
2023-04-25T17:39:34.715Z,2.47
2023-04-25T17:42:02.821Z,2.17
2023-04-25T17:44:29.488Z,2.30
2023-04-25T17:46:56.106Z,2.53
2023-04-25T17:49:22.893Z,2.25
2023-04-25T17:51:49.516Z,2.10
2023-04-25T17:54:16.352Z,2.38
2023-04-25T17:56:44.861Z,2.30
2023-04-25T17:59:11.456Z,1.85
2023-04-25T18:01:38.143Z,2.20
2023-04-25T18:04:05.708Z,1.92
2023-04-25T18:06:33.105Z,2.35
2023-04-25T18:08:59.817Z,2.10
2023-04-25T18:11:26.770Z,2.30
2023-04-25T18:13:54.065Z,2.10
2023-04-25T18:16:20.946Z,2.38
2023-04-25T18:18:53.627Z,2.65
2023-04-25T18:21:20.787Z,3.17
2023-04-25T18:23:47.708Z,2.90
2023-04-25T18:26:15.993Z,2.55
2023-04-25T18:28:42.787Z,2.60
2023-04-25T18:31:09.629Z,2.83
2023-04-25T18:33:36.617Z,2.30
2023-04-25T18:36:03.351Z,2.38
2023-04-25T18:41:10.768Z,2.20
2023-04-25T18:43:46.254Z,2.67
2023-04-25T18:46:13.209Z,2.58
2023-04-25T18:48:39.856Z,2.10
2023-04-25T18:51:06.720Z,2.70
2023-04-25T18:53:33.501Z,2.63
2023-04-25T18:56:00.416Z,2.22
2023-04-25T18:58:27.156Z,2.47
2023-04-25T19:00:53.990Z,2.47
2023-04-25T19:03:21.931Z,2.10
2023-04-25T19:05:48.707Z,2.25
2023-04-25T19:08:15.555Z,2.30
2023-04-25T19:10:42.358Z,2.40
2023-04-25T19:13:09.556Z,2.33
2023-04-25T19:15:36.281Z,2.55
2023-04-25T19:18:03.071Z,2.90
2023-04-25T19:20:29.811Z,2.95
2023-04-25T19:22:56.900Z,3.72
2023-04-25T19:25:24.788Z,2.75
2023-04-25T19:27:51.720Z,2.67
2023-04-25T19:30:18.564Z,2.60
2023-04-25T19:32:45.904Z,2.50
2023-04-25T19:35:13.484Z,2.58
2023-04-25T19:37:46.079Z,2.58
2023-04-25T19:40:14.560Z,2.20
2023-04-25T19:42:41.434Z,2.90
2023-04-25T19:45:08.830Z,2.40
2023-04-25T19:47:38.613Z,2.58
2023-04-25T19:50:09.580Z,2.80
2023-04-25T19:52:37.399Z,2.60
2023-04-25T19:55:05.155Z,2.60
2023-04-25T19:57:37.777Z,2.40
2023-04-25T20:00:17.391Z,2.85
2023-04-25T20:05:15.107Z,2.95
2023-04-25T20:07:42.466Z,2.78
2023-04-25T20:10:12.621Z,2.97
2023-04-25T20:12:42.676Z,2.78
2023-04-25T20:15:11.577Z,3.55
2023-04-25T20:17:40.405Z,2.45
2023-04-25T20:20:08.330Z,2.78
2023-04-25T20:22:38.826Z,3.05
2023-04-25T20:25:08.129Z,2.75
2023-04-25T20:27:34.867Z,2.70
2023-04-25T20:30:05.042Z,2.88
2023-04-25T20:32:34.722Z,2.92
2023-04-25T20:35:03.871Z,3.00
2023-04-25T20:37:34.582Z,2.80
2023-04-25T20:40:03.834Z,2.53
2023-04-25T20:42:32.058Z,3.35
2023-04-25T20:44:58.652Z,2.75
2023-04-25T20:47:25.481Z,3.20
2023-04-25T20:49:52.340Z,4.43
2023-04-25T20:52:19.074Z,3.10
2023-04-25T20:54:50.541Z,3.40
2023-04-25T20:57:17.697Z,3.10
2023-04-25T20:59:44.815Z,3.45
2023-04-25T21:02:14.939Z,3.58
2023-04-25T21:04:44.282Z,4.00
2023-04-25T21:07:14.544Z,3.55
2023-04-25T21:09:42.582Z,3.20
2023-04-25T21:12:09.312Z,3.25
2023-04-25T21:14:35.906Z,3.20
2023-04-25T21:17:04.149Z,3.10
2023-04-25T21:19:31.109Z,2.97
2023-04-25T21:21:58.406Z,3.00
2023-04-25T21:24:27.318Z,2.78
2023-04-25T21:26:54.136Z,3.30
2023-04-25T21:29:20.782Z,2.95
2023-04-25T21:31:47.499Z,3.20
2023-04-25T21:34:14.382Z,3.60
2023-04-25T21:36:41.388Z,3.28
2023-04-25T21:39:08.097Z,2.75
2023-04-25T21:41:37.482Z,3.42
2023-04-25T21:44:04.497Z,3.13
2023-04-25T21:46:31.229Z,3.05
2023-04-25T21:48:58.005Z,2.78
2023-04-25T21:51:24.852Z,3.10
2023-04-25T21:53:51.560Z,2.80
2023-04-25T21:56:18.265Z,3.97
2023-04-25T21:58:45.595Z,3.40
2023-04-25T22:01:12.336Z,3.33
2023-04-25T22:03:39.250Z,2.90
2023-04-25T22:06:05.986Z,3.42
2023-04-25T22:08:32.608Z,3.60
2023-04-25T22:11:00.539Z,3.22
2023-04-25T22:13:29.019Z,3.23
2023-04-25T22:15:55.780Z,2.97
2023-04-25T22:18:22.710Z,2.75
2023-04-25T22:20:49.787Z,2.90
2023-04-25T22:23:17.125Z,3.33
2023-04-25T22:25:45.222Z,2.92
2023-04-25T22:28:13.047Z,3.45
2023-04-25T22:30:39.828Z,3.05
2023-04-25T22:33:06.638Z,3.13
2023-04-25T22:35:33.289Z,4.07
2023-04-25T22:38:00.120Z,3.15
2023-04-25T22:40:27.211Z,3.75
2023-04-25T22:42:54.000Z,2.85
2023-04-25T22:45:20.936Z,2.80
2023-04-25T22:47:47.908Z,3.00
2023-04-25T22:50:16.661Z,3.22
2023-04-25T22:52:43.839Z,2.72
2023-04-25T22:55:12.480Z,3.10
2023-04-25T22:57:40.282Z,2.83
2023-04-25T23:00:15.296Z,3.10
2023-04-25T23:02:46.732Z,2.90
2023-04-25T23:05:14.054Z,3.33
2023-04-25T23:07:42.405Z,3.08
2023-04-25T23:10:09.424Z,4.55
2023-04-25T23:12:36.618Z,3.30
2023-04-25T23:15:05.198Z,2.70
2023-04-25T23:17:32.173Z,3.25
2023-04-25T23:19:58.804Z,3.30
2023-04-25T23:22:25.540Z,2.78
2023-04-25T23:24:52.234Z,3.25
2023-04-25T23:27:18.959Z,3.33
2023-04-25T23:29:54.786Z,3.20
2023-04-25T23:32:22.362Z,3.25
2023-04-25T23:34:49.266Z,3.00
2023-04-25T23:37:16.182Z,3.17
2023-04-25T23:39:49.277Z,3.15
2023-04-25T23:42:16.314Z,3.10
2023-04-25T23:44:42.960Z,3.00
2023-04-25T23:47:09.931Z,3.10
2023-04-25T23:49:36.556Z,3.20
2023-04-25T23:52:04.016Z,3.00
2023-04-25T23:54:30.752Z,2.90
2023-04-25T23:56:57.402Z,2.97
2023-04-25T23:59:24.888Z,3.00
